createdAt,value
2018-08-23T00:00:11.071Z,68.92
2018-08-23T00:00:37.211Z,69.21
2018-08-23T00:01:03.346Z,69.12
2018-08-23T00:01:29.482Z,68.82
2018-08-23T00:01:55.611Z,68.92
2018-08-23T00:02:21.759Z,69.12
2018-08-23T00:02:47.912Z,68.82
2018-08-23T00:03:14.068Z,68.82
2018-08-23T00:03:40.250Z,69.02
2018-08-23T00:04:06.362Z,68.92
2018-08-23T00:04:32.489Z,69.12
2018-08-23T00:04:58.630Z,69.21
2018-08-23T00:05:24.761Z,68.92
2018-08-23T00:05:50.893Z,68.82
2018-08-23T00:06:17.032Z,69.12
2018-08-23T00:06:43.205Z,69.6
2018-08-23T00:07:09.370Z,69.41
2018-08-23T00:07:35.496Z,69.27
2018-08-23T00:08:01.654Z,69.85
2018-08-23T00:08:27.826Z,69.76
2018-08-23T00:08:53.999Z,69.67
2018-08-23T00:09:20.162Z,69.76
2018-08-23T00:09:46.346Z,69.57
2018-08-23T00:10:12.505Z,69.67
2018-08-23T00:10:38.646Z,70.25
2018-08-23T00:11:04.783Z,70.05
2018-08-23T00:11:30.917Z,69.85
2018-08-23T00:11:57.073Z,69.57
2018-08-23T00:12:23.229Z,69.95
2018-08-23T00:12:49.374Z,70.05
2018-08-23T00:13:15.506Z,70.05
2018-08-23T00:13:41.701Z,70.05
2018-08-23T00:14:07.809Z,70.05
2018-08-23T00:14:33.940Z,70.05
2018-08-23T00:15:00.077Z,69.85
2018-08-23T00:15:26.239Z,70.05
2018-08-23T00:15:52.398Z,69.95
2018-08-23T00:16:18.558Z,69.67
2018-08-23T00:16:44.754Z,69.85
2018-08-23T00:17:10.835Z,69.67
2018-08-23T00:17:36.980Z,70.25
2018-08-23T00:18:03.113Z,69.67
2018-08-23T00:18:29.248Z,69.85
2018-08-23T00:18:55.393Z,70.44
2018-08-23T00:19:21.523Z,69.95
2018-08-23T00:19:47.655Z,70.15
2018-08-23T00:20:13.818Z,70.25
2018-08-23T00:20:39.956Z,70.15
2018-08-23T00:21:06.091Z,69.95
2018-08-23T00:21:32.253Z,70.34
2018-08-23T00:21:58.388Z,70.44
2018-08-23T00:22:24.529Z,70.25
2018-08-23T00:22:50.666Z,70.15
2018-08-23T00:23:16.798Z,70.05
2018-08-23T00:23:42.933Z,70.63
2018-08-23T00:24:09.066Z,70.44
2018-08-23T00:24:35.225Z,70.05
2018-08-23T00:25:01.358Z,70.54
2018-08-23T00:25:27.493Z,70.44
2018-08-23T00:25:53.657Z,70.25
2018-08-23T00:26:19.812Z,70.25
2018-08-23T00:26:45.950Z,70.15
2018-08-23T00:27:12.218Z,70.25
2018-08-23T00:27:38.249Z,70.25
2018-08-23T00:28:04.406Z,70.05
2018-08-23T00:28:30.546Z,70.44
2018-08-23T00:28:56.681Z,70.25
2018-08-23T00:29:22.815Z,70.25
2018-08-23T00:29:48.948Z,70.6
2018-08-23T00:30:15.090Z,70.44
2018-08-23T00:30:41.218Z,70.54
2018-08-23T00:31:07.365Z,70.63
2018-08-23T00:31:33.494Z,70.73
2018-08-23T00:31:59.636Z,70.6
2018-08-23T00:32:25.776Z,70.5
2018-08-23T00:32:51.901Z,70.6
2018-08-23T00:33:18.037Z,70.89
2018-08-23T00:33:44.175Z,71.08
2018-08-23T00:34:10.352Z,70.98
2018-08-23T00:34:36.489Z,71.28
2018-08-23T00:35:02.673Z,71.18
2018-08-23T00:35:28.800Z,71.28
2018-08-23T00:35:54.965Z,71.56
2018-08-23T00:36:21.125Z,71.37
2018-08-23T00:36:47.260Z,71.47
2018-08-23T00:37:13.425Z,71.66
2018-08-23T00:37:39.535Z,71.47
2018-08-23T00:38:05.694Z,71.18
2018-08-23T00:38:31.863Z,71.28
2018-08-23T00:38:58.025Z,71.08
2018-08-23T00:39:24.183Z,71.18
2018-08-23T00:39:50.339Z,71.28
2018-08-23T00:40:16.474Z,71.47
2018-08-23T00:40:45.645Z,71.37
2018-08-23T00:41:11.777Z,71.37
2018-08-23T00:41:37.912Z,71.47
2018-08-23T00:42:04.052Z,71.47
2018-08-23T00:42:30.181Z,71.47
2018-08-23T00:42:56.345Z,71.47
2018-08-23T00:43:22.511Z,71.47
2018-08-23T00:43:48.661Z,71.37
2018-08-23T00:44:14.793Z,71.47
2018-08-23T00:44:40.934Z,71.86
2018-08-23T00:45:07.087Z,71.76
2018-08-23T00:45:33.225Z,71.76
2018-08-23T00:45:59.361Z,71.86
2018-08-23T00:46:25.502Z,72.24
2018-08-23T00:46:51.644Z,71.95
2018-08-23T00:47:17.796Z,71.95
2018-08-23T00:47:43.934Z,71.95
2018-08-23T00:48:10.077Z,72.11
2018-08-23T00:48:36.211Z,72.21
2018-08-23T00:49:02.374Z,71.95
2018-08-23T00:49:28.513Z,72.4
2018-08-23T00:49:54.651Z,71.86
2018-08-23T00:50:20.802Z,71.66
2018-08-23T00:50:46.938Z,72.05
2018-08-23T00:51:13.078Z,72.02
2018-08-23T00:51:39.234Z,71.92
2018-08-23T00:52:05.375Z,72.02
2018-08-23T00:52:31.518Z,72.02
2018-08-23T00:52:57.652Z,72.05
2018-08-23T00:53:23.789Z,72.34
2018-08-23T00:53:49.928Z,72.44
2018-08-23T00:54:16.122Z,71.56
2018-08-23T00:54:42.220Z,72.44
2018-08-23T00:55:08.354Z,72.44
2018-08-23T00:55:34.514Z,72.4
2018-08-23T00:56:00.650Z,72.02
2018-08-23T00:56:26.816Z,72.11
2018-08-23T00:56:52.946Z,71.62
2018-08-23T00:57:19.083Z,72.6
2018-08-23T00:57:45.220Z,72.21
2018-08-23T00:58:11.385Z,72.21
2018-08-23T00:58:37.517Z,72.3
2018-08-23T00:59:03.662Z,72.4
2018-08-23T00:59:29.822Z,72.6
2018-08-23T00:59:56.001Z,72.4
2018-08-23T01:00:22.136Z,72.4
2018-08-23T01:00:48.280Z,72.4
2018-08-23T01:01:14.416Z,72.98
2018-08-23T01:01:40.553Z,72.89
2018-08-23T01:02:06.713Z,72.98
2018-08-23T01:02:32.886Z,72.98
2018-08-23T01:02:59.028Z,73.18
2018-08-23T01:03:25.166Z,72.98
2018-08-23T01:03:51.308Z,72.98
2018-08-23T01:04:17.442Z,72.79
2018-08-23T01:04:43.584Z,72.98
2018-08-23T01:05:09.718Z,72.89
2018-08-23T01:05:35.855Z,72.46
2018-08-23T01:06:02.010Z,73.04
2018-08-23T01:06:28.150Z,73.43
2018-08-23T01:06:54.314Z,73.33
2018-08-23T01:07:20.441Z,72.98
2018-08-23T01:07:46.578Z,73.18
2018-08-23T01:08:12.736Z,73.18
2018-08-23T01:08:38.864Z,72.6
2018-08-23T01:09:05.008Z,73.37
2018-08-23T01:09:31.150Z,73.18
2018-08-23T01:09:57.278Z,73.43
2018-08-23T01:10:23.419Z,73.43
2018-08-23T01:10:49.556Z,73.14
2018-08-23T01:11:15.700Z,73.14
2018-08-23T01:11:41.855Z,73.14
2018-08-23T01:12:07.992Z,73.47
2018-08-23T01:12:34.155Z,73.27
2018-08-23T01:13:00.290Z,72.95
2018-08-23T01:13:26.444Z,73.08
2018-08-23T01:13:52.583Z,72.79
2018-08-23T01:14:18.719Z,72.69
2018-08-23T01:14:44.881Z,72.79
2018-08-23T01:15:11.015Z,72.6
2018-08-23T01:15:37.144Z,73.18
2018-08-23T01:16:03.281Z,72.5
2018-08-23T01:16:29.419Z,73.14
2018-08-23T01:16:55.601Z,72.79
2018-08-23T01:17:21.783Z,72.95
2018-08-23T01:17:47.914Z,73.47
2018-08-23T01:18:14.046Z,73.04
2018-08-23T01:18:40.182Z,73.08
2018-08-23T01:19:06.318Z,73.14
2018-08-23T01:19:32.455Z,72.85
2018-08-23T01:19:58.590Z,72.85
2018-08-23T01:20:24.738Z,73.04
2018-08-23T01:20:50.866Z,73.14
2018-08-23T01:21:17.003Z,73.43
2018-08-23T01:21:43.154Z,73.24
2018-08-23T01:22:09.313Z,73.24
2018-08-23T01:22:35.501Z,73.33
2018-08-23T01:23:01.636Z,73.14
2018-08-23T01:23:27.788Z,73.33
2018-08-23T01:23:53.927Z,73.24
2018-08-23T01:24:20.068Z,73.43
2018-08-23T01:24:46.203Z,72.95
2018-08-23T01:25:12.340Z,73.04
2018-08-23T01:25:38.468Z,73.14
2018-08-23T01:26:04.605Z,73.33
2018-08-23T01:26:30.737Z,73.33
2018-08-23T01:26:56.874Z,72.95
2018-08-23T01:27:23.021Z,73.14
2018-08-23T01:27:49.156Z,73.43
2018-08-23T01:28:15.289Z,73.43
2018-08-23T01:28:41.430Z,73.14
2018-08-23T01:29:07.568Z,73.33
2018-08-23T01:29:33.703Z,73.14
2018-08-23T01:29:59.835Z,73.14
2018-08-23T01:30:25.972Z,73.24
2018-08-23T01:30:52.129Z,73.14
2018-08-23T01:31:18.267Z,73.24
2018-08-23T01:31:44.399Z,73.04
2018-08-23T01:32:10.560Z,73.04
2018-08-23T01:32:36.697Z,73.14
2018-08-23T01:33:02.836Z,73.14
2018-08-23T01:33:28.993Z,72.95
2018-08-23T01:33:55.147Z,73.04
2018-08-23T01:34:21.280Z,73.24
2018-08-23T01:34:47.411Z,73.43
2018-08-23T01:35:13.548Z,73.82
2018-08-23T01:35:39.677Z,73.72
2018-08-23T01:36:05.811Z,73.82
2018-08-23T01:36:31.951Z,73.24
2018-08-23T01:36:58.086Z,73.04
2018-08-23T01:37:24.217Z,73.43
2018-08-23T01:37:50.361Z,73.43
2018-08-23T01:38:16.525Z,73.24
2018-08-23T01:38:42.683Z,73.04
2018-08-23T01:39:08.819Z,73.14
2018-08-23T01:39:34.952Z,73.24
2018-08-23T01:40:01.090Z,73.33
2018-08-23T01:40:27.251Z,73.24
2018-08-23T01:40:53.379Z,73.14
2018-08-23T01:41:19.559Z,73.33
2018-08-23T01:41:45.700Z,73.43
2018-08-23T01:42:11.834Z,73.33
2018-08-23T01:42:37.964Z,73.33
2018-08-23T01:43:04.099Z,73.43
2018-08-23T01:43:30.243Z,73.82
2018-08-23T01:43:56.374Z,73.33
2018-08-23T01:44:22.520Z,73.63
2018-08-23T01:44:48.648Z,73.04
2018-08-23T01:45:14.786Z,73.14
2018-08-23T01:45:40.948Z,73.43
2018-08-23T01:46:07.086Z,73.43
2018-08-23T01:46:33.228Z,73.24
2018-08-23T01:46:59.363Z,73.24
2018-08-23T01:47:25.519Z,73.43
2018-08-23T01:47:51.661Z,73.14
2018-08-23T01:48:17.797Z,73.14
2018-08-23T01:48:43.936Z,73.14
2018-08-23T01:49:10.102Z,73.14
2018-08-23T01:49:36.236Z,73.24
2018-08-23T01:50:02.394Z,72.95
2018-08-23T01:50:28.529Z,73.33
2018-08-23T01:50:54.664Z,73.24
2018-08-23T01:51:20.828Z,72.95
2018-08-23T01:51:46.962Z,73.33
2018-08-23T01:52:13.104Z,73.24
2018-08-23T01:52:39.242Z,73.14
2018-08-23T01:53:05.382Z,73.14
2018-08-23T01:53:31.514Z,73.24
2018-08-23T01:53:57.674Z,73.24
2018-08-23T01:54:23.804Z,73.14
2018-08-23T01:54:49.953Z,73.14
2018-08-23T01:55:16.085Z,73.04
2018-08-23T01:55:42.220Z,72.95
2018-08-23T01:56:08.355Z,73.14
2018-08-23T01:56:34.522Z,73.24
2018-08-23T01:57:00.679Z,73.33
2018-08-23T01:57:26.818Z,73.14
2018-08-23T01:57:52.952Z,73.14
2018-08-23T01:58:19.092Z,72.95
2018-08-23T01:58:45.220Z,72.95
2018-08-23T01:59:11.363Z,72.95
2018-08-23T01:59:37.497Z,73.04
2018-08-23T02:00:03.628Z,73.14
2018-08-23T02:00:29.761Z,73.68
2018-08-23T02:00:55.921Z,73.68
2018-08-23T02:01:22.098Z,73.49
2018-08-23T02:01:48.236Z,73.59
2018-08-23T02:02:14.368Z,74.01
2018-08-23T02:02:40.529Z,73.63
2018-08-23T02:03:06.687Z,73.53
2018-08-23T02:03:32.841Z,73.53
2018-08-23T02:03:58.982Z,73.53
2018-08-23T02:04:25.125Z,73.72
2018-08-23T02:04:51.258Z,73.63
2018-08-23T02:05:17.386Z,73.82
2018-08-23T02:05:43.530Z,73.72
2018-08-23T02:06:09.663Z,73.59
2018-08-23T02:06:35.805Z,73.53
2018-08-23T02:07:01.936Z,73.53
2018-08-23T02:07:28.100Z,73.33
2018-08-23T02:07:54.259Z,73.14
2018-08-23T02:08:20.388Z,73.04
2018-08-23T02:08:46.527Z,73.33
2018-08-23T02:09:12.656Z,73.14
2018-08-23T02:09:38.809Z,73.33
2018-08-23T02:10:04.950Z,73.82
2018-08-23T02:10:31.097Z,73.14
2018-08-23T02:10:57.223Z,73.43
2018-08-23T02:11:23.378Z,73.43
2018-08-23T02:11:49.520Z,73.33
2018-08-23T02:12:15.662Z,73.33
2018-08-23T02:12:41.848Z,72.95
2018-08-23T02:13:07.984Z,73.14
2018-08-23T02:13:34.118Z,73.82
2018-08-23T02:14:00.252Z,73.78
2018-08-23T02:14:26.390Z,73.49
2018-08-23T02:14:52.527Z,73.68
2018-08-23T02:15:18.654Z,73.39
2018-08-23T02:15:44.783Z,73.88
2018-08-23T02:16:10.923Z,73.78
2018-08-23T02:16:37.063Z,73.88
2018-08-23T02:17:03.192Z,73.59
2018-08-23T02:17:29.333Z,73.68
2018-08-23T02:17:55.473Z,73.97
2018-08-23T02:18:21.626Z,73.97
2018-08-23T02:18:47.759Z,73.39
2018-08-23T02:19:13.898Z,73.78
2018-08-23T02:19:40.034Z,73.78
2018-08-23T02:20:06.215Z,74.27
2018-08-23T02:20:32.354Z,74.27
2018-08-23T02:20:58.490Z,74.65
2018-08-23T02:21:24.623Z,74.46
2018-08-23T02:21:50.764Z,74.27
2018-08-23T02:22:16.891Z,74.46
2018-08-23T02:22:43.034Z,74.55
2018-08-23T02:23:09.186Z,74.36
2018-08-23T02:23:35.324Z,74.55
2018-08-23T02:24:01.482Z,74.46
2018-08-23T02:24:27.642Z,74.65
2018-08-23T02:24:53.777Z,74.36
2018-08-23T02:25:19.941Z,74.94
2018-08-23T02:25:46.095Z,74.85
2018-08-23T02:26:12.227Z,74.36
2018-08-23T02:26:38.387Z,74.85
2018-08-23T02:27:04.524Z,74.46
2018-08-23T02:27:30.655Z,74.46
2018-08-23T02:27:56.784Z,74.27
2018-08-23T02:28:22.948Z,74.36
2018-08-23T02:28:49.087Z,74.36
2018-08-23T02:29:15.224Z,74.27
2018-08-23T02:29:41.392Z,74.55
2018-08-23T02:30:07.532Z,74.75
2018-08-23T02:30:33.718Z,74.46
2018-08-23T02:30:59.858Z,74.55
2018-08-23T02:31:26.015Z,74.36
2018-08-23T02:31:52.176Z,75.04
2018-08-23T02:32:18.310Z,74.85
2018-08-23T02:32:44.468Z,74.65
2018-08-23T02:33:10.619Z,74.36
2018-08-23T02:33:36.745Z,74.36
2018-08-23T02:34:02.879Z,74.46
2018-08-23T02:34:29.013Z,74.46
2018-08-23T02:34:55.151Z,74.65
2018-08-23T02:35:21.304Z,74.75
2018-08-23T02:35:47.439Z,74.55
2018-08-23T02:36:13.597Z,74.55
2018-08-23T02:36:39.778Z,74.36
2018-08-23T02:37:05.919Z,74.27
2018-08-23T02:37:32.064Z,74.46
2018-08-23T02:37:58.197Z,74.65
2018-08-23T02:38:24.370Z,74.17
2018-08-23T02:38:50.555Z,74.07
2018-08-23T02:39:16.685Z,74.17
2018-08-23T02:39:42.820Z,74.07
2018-08-23T02:40:08.966Z,74.36
2018-08-23T02:40:35.101Z,74.46
2018-08-23T02:41:01.283Z,74.17
2018-08-23T02:41:27.424Z,74.36
2018-08-23T02:41:53.559Z,74.36
2018-08-23T02:42:19.722Z,74.36
2018-08-23T02:42:45.905Z,74.36
2018-08-23T02:43:12.045Z,74.36
2018-08-23T02:43:38.171Z,74.55
2018-08-23T02:44:04.317Z,74.36
2018-08-23T02:44:30.487Z,74.36
2018-08-23T02:44:56.614Z,74.27
2018-08-23T02:45:22.748Z,74.17
2018-08-23T02:45:48.888Z,74.65
2018-08-23T02:46:15.011Z,74.42
2018-08-23T02:46:41.170Z,74.71
2018-08-23T02:47:07.356Z,74.55
2018-08-23T02:47:33.504Z,74.42
2018-08-23T02:47:59.639Z,74.46
2018-08-23T02:48:25.775Z,75.13
2018-08-23T02:48:51.917Z,74.75
2018-08-23T02:49:18.105Z,74.75
2018-08-23T02:49:44.242Z,75
2018-08-23T02:50:10.399Z,74.81
2018-08-23T02:50:36.540Z,74.9
2018-08-23T02:51:02.697Z,75.04
2018-08-23T02:51:28.856Z,74.81
2018-08-23T02:51:54.976Z,75.29
2018-08-23T02:52:21.135Z,75.2
2018-08-23T02:52:47.301Z,75.23
2018-08-23T02:53:13.441Z,75.2
2018-08-23T02:53:39.606Z,75.23
2018-08-23T02:54:05.734Z,75.1
2018-08-23T02:54:32.130Z,75.2
2018-08-23T02:54:58.265Z,75.39
2018-08-23T02:55:24.445Z,75
2018-08-23T02:55:50.582Z,75.1
2018-08-23T02:56:16.739Z,75.58
2018-08-23T02:56:42.879Z,75.48
2018-08-23T02:57:09.034Z,75.68
2018-08-23T02:57:35.172Z,75.78
2018-08-23T02:58:01.327Z,75.48
2018-08-23T02:58:27.464Z,75.58
2018-08-23T02:58:53.600Z,76.06
2018-08-23T02:59:19.781Z,75.87
2018-08-23T02:59:45.915Z,75.78
2018-08-23T03:00:12.073Z,75.97
2018-08-23T03:00:38.321Z,76.06
2018-08-23T03:01:04.344Z,75.97
2018-08-23T03:01:30.480Z,76.26
2018-08-23T03:01:56.618Z,76.16
2018-08-23T03:02:22.769Z,76.74
2018-08-23T03:02:48.930Z,75.93
2018-08-23T03:03:15.082Z,76.26
2018-08-23T03:03:41.245Z,76.26
2018-08-23T03:04:07.438Z,76.42
2018-08-23T03:04:33.616Z,75.97
2018-08-23T03:04:59.756Z,76.16
2018-08-23T03:05:25.888Z,76.26
2018-08-23T03:05:52.073Z,75.97
2018-08-23T03:06:18.224Z,76.06
2018-08-23T03:06:44.362Z,76.26
2018-08-23T03:07:10.511Z,76.55
2018-08-23T03:07:36.647Z,75.78
2018-08-23T03:08:02.779Z,75.97
2018-08-23T03:08:28.936Z,76.06
2018-08-23T03:08:55.077Z,76.06
2018-08-23T03:09:21.216Z,76.06
2018-08-23T03:09:47.397Z,75.97
2018-08-23T03:10:13.553Z,75.97
2018-08-23T03:10:39.684Z,75.87
2018-08-23T03:11:05.818Z,75.78
2018-08-23T03:11:31.957Z,76.45
2018-08-23T03:11:58.116Z,76.06
2018-08-23T03:12:24.255Z,76.16
2018-08-23T03:12:50.381Z,75.78
2018-08-23T03:13:16.541Z,76.35
2018-08-23T03:13:42.677Z,76.35
2018-08-23T03:14:08.937Z,76.26
2018-08-23T03:14:34.987Z,76.06
2018-08-23T03:15:01.118Z,75.97
2018-08-23T03:15:27.278Z,76.26
2018-08-23T03:15:53.417Z,75.78
2018-08-23T03:16:19.550Z,76.06
2018-08-23T03:16:45.701Z,76.26
2018-08-23T03:17:11.846Z,76.35
2018-08-23T03:17:38.002Z,76.35
2018-08-23T03:18:04.162Z,75.97
2018-08-23T03:18:30.300Z,75.97
2018-08-23T03:18:56.445Z,75.97
2018-08-23T03:19:22.627Z,76.06
2018-08-23T03:19:48.765Z,76.16
2018-08-23T03:20:14.902Z,76.26
2018-08-23T03:20:41.036Z,76.35
2018-08-23T03:21:07.171Z,76.16
2018-08-23T03:21:33.308Z,76.06
2018-08-23T03:21:59.476Z,76.26
2018-08-23T03:22:25.625Z,75.87
2018-08-23T03:22:51.768Z,75.97
2018-08-23T03:23:17.900Z,75.97
2018-08-23T03:23:44.066Z,75.78
2018-08-23T03:24:10.204Z,75.93
2018-08-23T03:24:36.331Z,75.93
2018-08-23T03:25:02.466Z,75.97
2018-08-23T03:25:28.608Z,76.03
2018-08-23T03:25:54.737Z,76.74
2018-08-23T03:26:20.865Z,76.35
2018-08-23T03:26:47.001Z,75.74
2018-08-23T03:27:13.140Z,75.74
2018-08-23T03:27:39.310Z,75.84
2018-08-23T03:28:05.468Z,76.51
2018-08-23T03:28:31.635Z,76.55
2018-08-23T03:28:57.773Z,76.61
2018-08-23T03:29:23.955Z,76.61
2018-08-23T03:29:50.089Z,76.7
2018-08-23T03:30:16.231Z,76.42
2018-08-23T03:30:42.417Z,76.9
2018-08-23T03:31:08.571Z,76.42
2018-08-23T03:31:34.756Z,76.51
2018-08-23T03:32:00.979Z,76.51
2018-08-23T03:32:27.141Z,77.28
2018-08-23T03:32:53.277Z,77.09
2018-08-23T03:33:19.444Z,77.48
2018-08-23T03:33:45.581Z,77.48
2018-08-23T03:34:11.710Z,77.28
2018-08-23T03:34:37.854Z,77.09
2018-08-23T03:35:04.009Z,77.19
2018-08-23T03:35:30.151Z,77
2018-08-23T03:35:56.285Z,77
2018-08-23T03:36:22.447Z,77
2018-08-23T03:36:48.595Z,77
2018-08-23T03:37:14.783Z,77
2018-08-23T03:37:40.938Z,77.09
2018-08-23T03:38:07.097Z,77.38
2018-08-23T03:38:33.262Z,77.09
2018-08-23T03:38:59.420Z,77.09
2018-08-23T03:39:25.560Z,77.38
2018-08-23T03:39:51.720Z,77.19
2018-08-23T03:40:17.906Z,77.48
2018-08-23T03:40:44.032Z,78.06
2018-08-23T03:41:10.204Z,77.67
2018-08-23T03:41:36.332Z,77.38
2018-08-23T03:42:02.517Z,77.48
2018-08-23T03:42:28.649Z,77.96
2018-08-23T03:42:54.820Z,77.67
2018-08-23T03:43:20.947Z,77.76
2018-08-23T03:43:47.105Z,77.86
2018-08-23T03:44:13.233Z,78.06
2018-08-23T03:44:39.377Z,77.57
2018-08-23T03:45:05.537Z,77.67
2018-08-23T03:45:31.698Z,77.38
2018-08-23T03:45:57.823Z,77.09
2018-08-23T03:46:23.984Z,77.48
2018-08-23T03:46:50.112Z,77.67
2018-08-23T03:47:16.281Z,77.86
2018-08-23T03:47:42.441Z,77.86
2018-08-23T03:48:08.603Z,77.57
2018-08-23T03:48:34.784Z,77.67
2018-08-23T03:49:00.913Z,77.57
2018-08-23T03:49:27.064Z,77.48
2018-08-23T03:49:53.221Z,77.28
2018-08-23T03:50:19.397Z,77.38
2018-08-23T03:50:45.554Z,77.67
2018-08-23T03:51:11.713Z,77.67
2018-08-23T03:51:37.900Z,77.76
2018-08-23T03:52:04.055Z,77.76
2018-08-23T03:52:30.256Z,77.96
2018-08-23T03:52:56.397Z,77.76
2018-08-23T03:53:22.560Z,77.67
2018-08-23T03:53:48.700Z,77.86
2018-08-23T03:54:14.856Z,77.96
2018-08-23T03:54:40.997Z,78.06
2018-08-23T03:55:07.137Z,77.96
2018-08-23T03:55:33.272Z,78.15
2018-08-23T03:55:59.412Z,78.34
2018-08-23T03:56:25.539Z,78.06
2018-08-23T03:56:51.673Z,78.15
2018-08-23T03:57:17.831Z,78.34
2018-08-23T03:57:43.966Z,77.57
2018-08-23T03:58:10.099Z,77.57
2018-08-23T03:58:36.238Z,77.76
2018-08-23T03:59:02.371Z,77.86
2018-08-23T03:59:28.502Z,77.86
2018-08-23T03:59:54.641Z,77.76
2018-08-23T04:00:20.782Z,77.86
2018-08-23T04:00:46.943Z,77.57
2018-08-23T04:01:13.096Z,77.96
2018-08-23T04:01:39.265Z,78.34
2018-08-23T04:02:05.403Z,78.41
2018-08-23T04:02:31.557Z,78.15
2018-08-23T04:02:57.689Z,78.34
2018-08-23T04:03:23.875Z,77.96
2018-08-23T04:03:50.018Z,78.34
2018-08-23T04:04:16.149Z,78.44
2018-08-23T04:04:42.291Z,77.92
2018-08-23T04:05:08.421Z,78.11
2018-08-23T04:05:34.631Z,78.15
2018-08-23T04:06:00.758Z,78.15
2018-08-23T04:06:26.919Z,78.06
2018-08-23T04:06:53.044Z,78.69
2018-08-23T04:07:19.186Z,78.5
2018-08-23T04:07:45.315Z,78.69
2018-08-23T04:08:11.482Z,78.59
2018-08-23T04:08:37.641Z,78.5
2018-08-23T04:09:03.799Z,78.59
2018-08-23T04:09:29.963Z,78.5
2018-08-23T04:09:56.095Z,78.5
2018-08-23T04:10:22.254Z,78.59
2018-08-23T04:10:48.391Z,78.64
2018-08-23T04:11:14.549Z,78.64
2018-08-23T04:11:40.687Z,78.34
2018-08-23T04:12:06.844Z,78.5
2018-08-23T04:12:32.984Z,78.59
2018-08-23T04:12:59.116Z,78.59
2018-08-23T04:13:25.251Z,78.15
2018-08-23T04:13:51.383Z,78.21
2018-08-23T04:14:17.552Z,78.25
2018-08-23T04:14:43.692Z,78.11
2018-08-23T04:15:09.870Z,78.64
2018-08-23T04:15:35.964Z,78.31
2018-08-23T04:16:02.097Z,78.73
2018-08-23T04:16:28.260Z,78.73
2018-08-23T04:16:54.430Z,78.31
2018-08-23T04:17:20.588Z,78.44
2018-08-23T04:17:46.726Z,78.34
2018-08-23T04:18:12.886Z,78.06
2018-08-23T04:18:39.040Z,78.21
2018-08-23T04:19:05.182Z,78.06
2018-08-23T04:19:31.399Z,78.21
2018-08-23T04:19:57.528Z,78.15
2018-08-23T04:20:23.659Z,78.31
2018-08-23T04:20:49.795Z,78.5
2018-08-23T04:21:15.948Z,78.25
2018-08-23T04:21:42.110Z,78.34
2018-08-23T04:22:08.244Z,78.5
2018-08-23T04:22:34.385Z,78.69
2018-08-23T04:23:00.676Z,78.34
2018-08-23T04:23:26.715Z,78.21
2018-08-23T04:23:52.861Z,78.73
2018-08-23T04:24:19.002Z,78.34
2018-08-23T04:24:45.137Z,78.44
2018-08-23T04:25:11.270Z,78.34
2018-08-23T04:25:37.429Z,78.34
2018-08-23T04:26:03.567Z,78.44
2018-08-23T04:26:29.698Z,78.34
2018-08-23T04:26:55.836Z,78.31
2018-08-23T04:27:21.999Z,78.41
2018-08-23T04:27:48.130Z,78.73
2018-08-23T04:28:14.265Z,78.31
2018-08-23T04:28:40.397Z,78.54
2018-08-23T04:29:06.529Z,78.34
2018-08-23T04:29:32.666Z,78.31
2018-08-23T04:29:58.848Z,78.41
2018-08-23T04:30:25.012Z,78.5
2018-08-23T04:30:51.178Z,78.5
2018-08-23T04:31:17.331Z,78.5
2018-08-23T04:31:43.465Z,79.08
2018-08-23T04:32:09.633Z,78.99
2018-08-23T04:32:35.761Z,79.08
2018-08-23T04:33:01.905Z,79.52
2018-08-23T04:33:28.066Z,79.91
2018-08-23T04:33:54.237Z,79.81
2018-08-23T04:34:20.367Z,80.1
2018-08-23T04:34:46.499Z,80.2
2018-08-23T04:35:12.657Z,80.3
2018-08-23T04:35:38.823Z,80.58
2018-08-23T04:36:04.986Z,80.49
2018-08-23T04:36:31.118Z,80.68
2018-08-23T04:36:57.272Z,80.58
2018-08-23T04:37:23.440Z,80.49
2018-08-23T04:37:49.572Z,80.87
2018-08-23T04:38:15.704Z,81.07
2018-08-23T04:38:41.837Z,80.87
2018-08-23T04:39:07.976Z,81.55
2018-08-23T04:39:34.140Z,81.35
2018-08-23T04:40:00.275Z,81.65
2018-08-23T04:40:26.412Z,81.65
2018-08-23T04:40:52.573Z,81.55
2018-08-23T04:41:18.717Z,81.35
2018-08-23T04:41:44.850Z,81.65
2018-08-23T04:42:10.998Z,81.35
2018-08-23T04:42:37.144Z,81.74
2018-08-23T04:43:03.308Z,81.35
2018-08-23T04:43:29.462Z,81.55
2018-08-23T04:43:55.600Z,81.26
2018-08-23T04:44:21.731Z,81.35
2018-08-23T04:44:47.858Z,81.22
2018-08-23T04:45:13.996Z,81.55
2018-08-23T04:45:40.139Z,81.8
2018-08-23T04:46:06.321Z,81.74
2018-08-23T04:46:32.454Z,81.7
2018-08-23T04:46:58.596Z,81.9
2018-08-23T04:47:24.734Z,82.09
2018-08-23T04:47:50.891Z,82.09
2018-08-23T04:48:17.033Z,81.99
2018-08-23T04:48:43.181Z,81.99
2018-08-23T04:49:09.340Z,81.9
2018-08-23T04:49:35.476Z,81.9
2018-08-23T04:50:01.640Z,81.99
2018-08-23T04:50:27.803Z,81.9
2018-08-23T04:50:53.957Z,81.99
2018-08-23T04:51:20.115Z,82.13
2018-08-23T04:51:46.363Z,81.6
2018-08-23T04:52:12.427Z,81.9
2018-08-23T04:52:38.580Z,82.13
2018-08-23T04:53:04.719Z,81.7
2018-08-23T04:53:30.897Z,82.57
2018-08-23T04:53:57.035Z,82.76
2018-08-23T04:54:23.173Z,82.86
2018-08-23T04:54:49.314Z,82.76
2018-08-23T04:55:15.443Z,82.57
2018-08-23T04:55:41.576Z,82.9
2018-08-23T04:56:07.722Z,81.93
2018-08-23T04:56:33.853Z,82.09
2018-08-23T04:56:59.995Z,81.8
2018-08-23T04:57:26.176Z,81.99
2018-08-23T04:57:52.314Z,81.9
2018-08-23T04:58:18.457Z,81.8
2018-08-23T04:58:44.591Z,81.99
2018-08-23T04:59:10.721Z,81.7
2018-08-23T04:59:36.859Z,82.76
2018-08-23T05:00:03.010Z,82.86
2018-08-23T05:00:29.181Z,82.67
2018-08-23T05:00:55.314Z,82.86
2018-08-23T05:01:21.454Z,82.42
2018-08-23T05:01:47.581Z,81.8
2018-08-23T05:02:13.712Z,81.93
2018-08-23T05:02:39.841Z,82.13
2018-08-23T05:03:05.993Z,82.13
2018-08-23T05:03:32.131Z,81.7
2018-08-23T05:03:58.342Z,81.6
2018-08-23T05:04:24.416Z,81.74
2018-08-23T05:04:50.585Z,82.03
2018-08-23T05:05:16.742Z,81.93
2018-08-23T05:05:42.901Z,82.03
2018-08-23T05:06:09.042Z,81.8
2018-08-23T05:06:35.194Z,82.86
2018-08-23T05:07:01.363Z,82.76
2018-08-23T05:07:27.543Z,82.48
2018-08-23T05:07:53.683Z,82.9
2018-08-23T05:08:19.840Z,82.76
2018-08-23T05:08:45.978Z,81.7
2018-08-23T05:09:12.140Z,82.09
2018-08-23T05:09:38.279Z,82.13
2018-08-23T05:10:04.420Z,81.7
2018-08-23T05:10:30.548Z,81.84
2018-08-23T05:10:56.710Z,81.84
2018-08-23T05:11:22.840Z,82.03
2018-08-23T05:11:48.992Z,82.23
2018-08-23T05:12:15.134Z,81.74
2018-08-23T05:12:41.272Z,82.03
2018-08-23T05:13:07.426Z,81.93
2018-08-23T05:13:33.584Z,82.23
2018-08-23T05:13:59.755Z,81.74
2018-08-23T05:14:25.907Z,81.74
2018-08-23T05:14:52.104Z,81.74
2018-08-23T05:15:18.240Z,81.74
2018-08-23T05:15:44.397Z,82.03
2018-08-23T05:16:10.529Z,81.74
2018-08-23T05:16:36.669Z,81.93
2018-08-23T05:17:02.848Z,82.32
2018-08-23T05:17:28.986Z,82.18
2018-08-23T05:17:55.119Z,82.03
2018-08-23T05:18:21.254Z,82.03
2018-08-23T05:18:47.391Z,81.84
2018-08-23T05:19:13.555Z,81.74
2018-08-23T05:19:39.726Z,81.99
2018-08-23T05:20:05.885Z,82.13
2018-08-23T05:20:32.021Z,82.13
2018-08-23T05:20:58.157Z,82.03
2018-08-23T05:21:24.313Z,81.45
2018-08-23T05:21:50.463Z,81.93
2018-08-23T05:22:16.623Z,81.35
2018-08-23T05:22:42.764Z,81.35
2018-08-23T05:23:08.966Z,81.45
2018-08-23T05:23:35.054Z,81.45
2018-08-23T05:24:01.190Z,81.35
2018-08-23T05:24:27.327Z,81.35
2018-08-23T05:24:53.470Z,81.35
2018-08-23T05:25:19.602Z,81.26
2018-08-23T05:25:45.756Z,81.35
2018-08-23T05:26:11.918Z,80.68
2018-08-23T05:26:38.083Z,81.07
2018-08-23T05:27:04.214Z,81.26
2018-08-23T05:27:30.346Z,80.97
2018-08-23T05:27:56.510Z,80.87
2018-08-23T05:28:22.647Z,80.68
2018-08-23T05:28:48.800Z,80.58
2018-08-23T05:29:14.960Z,80.49
2018-08-23T05:29:41.120Z,79.91
2018-08-23T05:30:07.231Z,80.3
2018-08-23T05:30:33.371Z,80.58
2018-08-23T05:30:59.524Z,80.53
2018-08-23T05:31:25.669Z,79.95
2018-08-23T05:31:51.823Z,79.81
2018-08-23T05:32:17.982Z,80
2018-08-23T05:32:44.145Z,80.14
2018-08-23T05:33:10.255Z,79.95
2018-08-23T05:33:36.391Z,79.27
2018-08-23T05:34:02.531Z,79.27
2018-08-23T05:34:28.685Z,79.27
2018-08-23T05:34:54.824Z,79.47
2018-08-23T05:35:20.961Z,79.66
2018-08-23T05:35:47.113Z,79.66
2018-08-23T05:36:13.265Z,79.56
2018-08-23T05:36:39.433Z,79.75
2018-08-23T05:37:05.574Z,79.56
2018-08-23T05:37:31.736Z,79.75
2018-08-23T05:37:57.860Z,79.37